Time;durP1;ratioP1;P1;durP2;ratioP2;P2;SDS_P1;SDS_P2;PMS_P1;PMS_P2;Temp;Humidity;BMP_temperature;BMP_pressure;BME280_temperature;BME280_humidity;BME280_pressure;Samples;Min_cycle;Max_cycle;Signal;HPM_P1;HPM_P2
2022/01/04 00:00:21;;;;;;;65.20;35.40;;;;;;;1.54;80.25;93390.47;5110452;28;20141;-34
2022/01/04 00:02:46;;;;;;;59.90;31.67;;;;;;;1.51;80.35;93392.22;5110607;28;20050;-33
2022/01/04 00:05:12;;;;;;;32.22;18.52;;;;;;;1.49;79.67;93391.94;5110492;28;20062;-34
2022/01/04 00:07:38;;;;;;;32.45;17.75;;;;;;;1.22;80.17;93389.16;5110364;28;20027;-34
2022/01/04 00:10:07;;;;;;;29.67;16.77;;;;;;;1.20;79.95;93391.63;5110516;28;20118;-33
2022/01/04 00:15:17;;;;;;;32.03;18.73;;;;;;;1.06;80.76;93392.59;5110491;28;19995;-33
2022/01/04 00:17:43;;;;;;;37.92;23.13;;;;;;;0.88;81.22;93391.03;5110381;28;20047;-33
2022/01/04 00:20:09;;;;;;;52.15;26.42;;;;;;;1.09;80.89;93391.59;5110848;28;20027;-34
2022/01/04 00:22:35;;;;;;;50.53;28.15;;;;;;;1.29;80.61;93384.00;5110373;28;20034;-33
2022/01/04 00:25:01;;;;;;;49.25;27.52;;;;;;;1.41;79.86;93379.31;5110267;28;20031;-33
2022/01/04 00:27:26;;;;;;;57.25;31.48;;;;;;;1.47;79.48;93369.94;5110184;28;20047;-33
2022/01/04 00:29:52;;;;;;;61.35;33.55;;;;;;;1.33;79.53;93379.06;5110229;28;20023;-33
2022/01/04 00:32:17;;;;;;;51.83;29.52;;;;;;;1.28;79.53;93393.38;5110227;28;20030;-33
2022/01/04 00:34:43;;;;;;;47.97;27.42;;;;;;;1.37;78.71;93384.25;5110341;28;20328;-33
2022/01/04 00:37:09;;;;;;;44.55;24.33;;;;;;;1.31;79.11;93395.16;5110399;28;20020;-33
2022/01/04 00:39:35;;;;;;;40.10;22.27;;;;;;;1.06;79.82;93393.31;5110224;28;20035;-33
2022/01/04 00:42:00;;;;;;;41.53;24.10;;;;;;;0.89;81.04;93391.78;5110413;28;20110;-33
2022/01/04 00:44:26;;;;;;;32.80;17.30;;;;;;;0.94;80.14;93391.78;5111534;28;20416;-34
2022/01/04 00:46:52;;;;;;;26.27;16.35;;;;;;;1.17;79.89;93379.75;5113847;28;20035;-33
2022/01/04 00:49:18;;;;;;;21.17;13.60;;;;;;;1.18;78.92;93378.53;5113902;28;20038;-33
2022/01/04 00:51:45;;;;;;;23.40;13.15;;;;;;;1.02;79.71;93400.97;5112735;28;20032;-34
2022/01/04 00:54:13;;;;;;;18.95;12.73;;;;;;;1.12;79.45;93401.50;5113189;28;20061;-34
2022/01/04 00:56:39;;;;;;;25.77;13.60;;;;;;;1.37;78.44;93400.59;5113818;28;20019;-33
2022/01/04 00:59:04;;;;;;;27.95;15.70;;;;;;;1.23;78.23;93396.84;5113700;28;20027;-34
2022/01/04 01:01:30;;;;;;;23.58;14.02;;;;;;;1.26;78.22;93403.25;5113641;28;20035;-34
2022/01/04 01:03:56;;;;;;;23.20;12.93;;;;;;;1.14;78.10;93401.75;5113748;28;20114;-33
2022/01/04 01:06:22;;;;;;;23.38;12.95;;;;;;;1.04;78.65;93395.78;5113579;28;20019;-34
2022/01/04 01:08:48;;;;;;;20.35;11.05;;;;;;;1.16;78.76;93397.31;5112404;28;20027;-34
2022/01/04 01:11:14;;;;;;;31.55;16.02;;;;;;;1.24;78.67;93389.41;5113575;28;20084;-34
2022/01/04 01:13:40;;;;;;;27.13;16.50;;;;;;;1.11;78.77;93383.69;5113352;28;20058;-34
2022/01/04 01:16:06;;;;;;;26.10;16.10;;;;;;;1.06;79.27;93390.59;5113488;28;20557;-33
2022/01/04 01:18:32;;;;;;;26.67;16.73;;;;;;;1.19;79.01;93377.28;5113812;28;20103;-34
2022/01/04 01:20:59;;;;;;;31.80;16.98;;;;;;;1.16;78.43;93378.28;5113632;28;20419;-33
2022/01/04 01:23:25;;;;;;;26.02;14.80;;;;;;;1.13;77.82;93373.81;5113370;28;20028;-33
2022/01/04 01:25:51;;;;;;;28.33;15.85;;;;;;;0.75;78.94;93342.56;5113155;28;20028;-34
2022/01/04 01:28:17;;;;;;;23.83;15.70;;;;;;;1.04;78.26;93363.16;5113287;28;20035;-33
2022/01/04 01:30:44;;;;;;;27.88;14.93;;;;;;;0.75;79.89;93374.41;5113568;28;20034;-33
2022/01/04 01:33:10;;;;;;;23.10;13.35;;;;;;;0.32;80.75;93370.25;5113227;28;20023;-34
2022/01/04 01:35:37;;;;;;;24.52;13.68;;;;;;;0.56;80.08;93365.91;5113104;28;20026;-33
2022/01/04 01:38:04;;;;;;;23.05;12.82;;;;;;;0.53;80.89;93369.63;5113356;28;20031;-34
2022/01/04 01:40:30;;;;;;;15.68;9.93;;;;;;;0.72;79.21;93376.13;5113372;28;20024;-34
2022/01/04 01:42:56;;;;;;;20.67;11.80;;;;;;;0.65;79.04;93365.00;5112908;28;20435;-33
2022/01/04 01:45:23;;;;;;;18.98;11.13;;;;;;;0.60;79.56;93371.13;5112885;28;20031;-34
2022/01/04 01:47:49;;;;;;;18.30;10.68;;;;;;;0.43;80.16;93371.06;5112819;28;20326;-33
2022/01/04 01:50:14;;;;;;;22.70;11.13;;;;;;;0.07;81.36;93354.75;5113116;28;20443;-33
2022/01/04 01:52:42;;;;;;;27.45;15.43;;;;;;;0.30;80.92;93375.41;5112653;28;20019;-34
2022/01/04 01:55:09;;;;;;;62.08;32.03;;;;;;;0.22;81.48;93379.81;5091882;28;20024;-33
2022/01/04 01:57:35;;;;;;;30.48;19.13;;;;;;;0.30;81.81;93375.41;5092577;28;20081;-34
2022/01/04 02:00:01;;;;;;;26.80;15.80;;;;;;;0.40;80.80;93352.25;5092021;28;20039;-34
2022/01/04 02:02:26;;;;;;;27.75;14.75;;;;;;;0.68;79.81;93375.63;5092170;28;20035;-33
2022/01/04 02:04:52;;;;;;;17.60;12.30;;;;;;;0.78;79.62;93368.00;5092117;28;20034;-33
2022/01/04 02:07:19;;;;;;;23.05;12.75;;;;;;;0.64;79.08;93369.69;5092311;28;20107;-33
2022/01/04 02:09:52;;;;;;;20.80;13.25;;;;;;;0.54;79.71;93364.94;5092626;28;20039;-34
2022/01/04 02:12:19;;;;;;;21.38;12.82;;;;;;;0.64;80.00;93363.50;5092058;28;20504;-34
2022/01/04 02:14:51;;;;;;;19.10;11.57;;;;;;;0.58;80.04;93358.06;5091995;28;20024;-34
2022/01/04 02:17:17;;;;;;;20.10;11.35;;;;;;;0.57;79.45;93356.56;5091909;28;20032;-34
2022/01/04 02:19:42;;;;;;;23.45;13.75;;;;;;;0.64;79.71;93358.06;5091748;28;20028;-33
2022/01/04 02:22:08;;;;;;;29.50;14.60;;;;;;;0.54;79.33;93349.38;5124794;27;20032;-33
2022/01/04 02:24:33;;;;;;;19.45;12.50;;;;;;;0.58;79.30;93349.91;5092044;28;20048;-33
2022/01/04 02:27:00;;;;;;;23.33;14.32;;;;;;;0.45;79.17;93346.13;5091617;28;20470;-33
2022/01/04 02:29:26;;;;;;;20.17;12.23;;;;;;;0.36;79.72;93354.47;5091639;28;20043;-34
2022/01/04 02:31:52;;;;;;;17.02;10.57;;;;;;;0.31;78.86;93355.16;5091866;28;20020;-33
2022/01/04 02:34:18;;;;;;;19.92;10.20;;;;;;;0.47;78.49;93351.81;5091638;28;20077;-34
2022/01/04 02:36:44;;;;;;;14.77;8.90;;;;;;;0.43;77.61;93338.47;5091485;28;20107;-33
2022/01/04 02:39:09;;;;;;;16.70;10.57;;;;;;;0.57;77.92;93351.13;5103550;28;20031;-33
2022/01/04 02:41:35;;;;;;;21.33;11.70;;;;;;;0.44;78.59;93352.78;5111999;28;20035;-34
2022/01/04 02:44:00;;;;;;;18.77;11.38;;;;;;;0.45;78.06;93354.28;5111696;28;20027;-33
2022/01/04 02:46:26;;;;;;;23.30;13.55;;;;;;;0.29;78.93;93350.22;5111658;28;20058;-33
2022/01/04 02:48:51;;;;;;;25.67;14.57;;;;;;;0.32;79.60;93351.22;5111606;28;20503;-33
2022/01/04 02:51:18;;;;;;;24.00;14.20;;;;;;;0.37;78.85;93356.69;5111739;28;20084;-33
2022/01/04 02:53:44;;;;;;;25.20;15.23;;;;;;;0.37;79.25;93362.09;5110858;28;20024;-33
2022/01/04 02:56:11;;;;;;;20.80;13.88;;;;;;;0.32;78.77;93356.66;5111542;28;20024;-33
2022/01/04 02:58:36;;;;;;;21.08;12.27;;;;;;;-0.02;79.72;93342.13;5111555;28;20511;-33
2022/01/04 03:01:03;;;;;;;25.08;13.30;;;;;;;-0.05;79.87;93354.69;5111315;28;20035;-33
2022/01/04 03:03:30;;;;;;;22.05;14.00;;;;;;;0.00;80.44;93350.53;5111532;28;20031;-33
2022/01/04 03:05:55;;;;;;;26.60;15.43;;;;;;;0.14;79.61;93355.06;5109908;28;20118;-33
2022/01/04 03:08:22;;;;;;;22.85;15.90;;;;;;;-0.05;79.42;93362.09;5110682;28;20110;-33
2022/01/04 03:10:47;;;;;;;27.80;17.27;;;;;;;-0.08;80.30;93354.91;5111592;28;20424;-34
2022/01/04 03:13:16;;;;;;;38.35;20.75;;;;;;;-0.25;80.08;93329.63;5111174;28;20042;-33
2022/01/04 03:15:42;;;;;;;23.85;15.27;;;;;;;-0.04;80.07;93363.56;5111040;28;20023;-33
2022/01/04 03:18:08;;;;;;;21.90;12.82;;;;;;;-0.09;79.67;93358.88;5111385;28;20027;-33
2022/01/04 03:20:33;;;;;;;15.48;8.70;;;;;;;0.03;79.71;93355.00;5111366;28;20119;-33
2022/01/04 03:23:00;;;;;;;17.27;10.35;;;;;;;-0.01;79.17;93357.94;5111104;28;20572;-34
2022/01/04 03:25:25;;;;;;;21.63;11.45;;;;;;;-0.18;78.85;93340.03;5110849;28;20027;-34
2022/01/04 03:27:51;;;;;;;23.85;14.00;;;;;;;0.06;78.53;93359.47;5110932;28;20031;-33
2022/01/04 03:30:16;;;;;;;26.13;13.75;;;;;;;0.23;77.43;93362.28;5111274;28;20036;-33
2022/01/04 03:32:42;;;;;;;26.20;13.85;;;;;;;0.31;76.97;93347.75;5110849;28;20023;-33
2022/01/04 03:35:08;;;;;;;21.58;15.82;;;;;;;0.27;77.85;93349.22;5110818;28;20059;-33
2022/01/04 03:37:33;;;;;;;23.38;13.63;;;;;;;0.33;78.25;93350.75;5111015;28;20024;-33
2022/01/04 03:39:59;;;;;;;29.40;15.65;;;;;;;0.12;78.38;93351.34;5110842;28;20046;-33
2022/01/04 03:42:24;;;;;;;63.13;33.08;;;;;;;-0.03;79.68;93357.69;5111033;28;20028;-33
2022/01/04 03:44:50;;;;;;;34.63;21.38;;;;;;;-0.04;79.45;93352.72;5110529;28;20027;-33
2022/01/04 03:47:15;;;;;;;30.15;17.50;;;;;;;-0.22;80.80;93355.81;5110685;28;20074;-33
2022/01/04 03:49:41;;;;;;;34.88;17.25;;;;;;;-0.13;80.68;93352.91;5110464;28;20055;-33
2022/01/04 03:52:06;;;;;;;29.85;17.35;;;;;;;-0.11;80.12;93353.91;5110733;28;20030;-33
2022/01/04 03:54:32;;;;;;;20.67;12.10;;;;;;;-0.17;79.59;93355.84;5110275;28;20106;-33
2022/01/04 03:56:57;;;;;;;18.08;10.43;;;;;;;-0.24;79.65;93369.81;5110591;28;20050;-33
2022/01/04 03:59:23;;;;;;;34.05;17.02;;;;;;;-0.15;79.25;93366.19;5110407;28;20049;-33
2022/01/04 04:01:49;;;;;;;21.95;11.82;;;;;;;0.00;78.46;93362.13;5110795;28;20027;-33
2022/01/04 04:04:16;;;;;;;28.08;15.25;;;;;;;-0.13;78.79;93356.34;5110606;28;20024;-33
2022/01/04 04:06:42;;;;;;;20.73;9.63;;;;;;;-0.17;79.86;93352.38;5110420;28;20076;-33
2022/01/04 04:09:08;;;;;;;16.88;7.88;;;;;;;-0.17;78.97;93357.78;5110898;28;20058;-33
2022/01/04 04:11:33;;;;;;;39.47;20.90;;;;;;;-0.36;78.08;93365.53;5110429;28;20055;-33
2022/01/04 04:13:59;;;;;;;21.73;11.85;;;;;;;-0.39;77.80;93350.22;5110714;28;20062;-33
2022/01/04 04:16:24;;;;;;;12.25;7.80;;;;;;;-0.42;78.43;93372.16;5110770;28;20102;-33
2022/01/04 04:18:50;;;;;;;15.75;9.95;;;;;;;-0.41;78.17;93376.38;5112644;28;20468;-33
2022/01/04 04:21:15;;;;;;;33.05;16.20;;;;;;;-0.46;79.09;93380.50;5114863;28;20035;-33
2022/01/04 04:23:41;;;;;;;29.88;15.63;;;;;;;-0.29;79.14;93373.25;5114621;28;20031;-33
2022/01/04 04:26:07;;;;;;;36.90;19.75;;;;;;;-0.12;78.38;93365.25;5114695;28;20030;-33
2022/01/04 04:28:32;;;;;;;27.60;14.57;;;;;;;-0.32;78.54;93366.06;5114384;28;20031;-33
2022/01/04 04:30:59;;;;;;;24.40;15.43;;;;;;;-0.43;79.71;93365.22;5114251;28;20050;-33
2022/01/04 04:33:24;;;;;;;23.80;14.50;;;;;;;-0.33;79.09;93361.88;5114656;28;20404;-33
2022/01/04 04:35:50;;;;;;;29.70;17.88;;;;;;;-0.62;80.47;93366.78;5114111;28;20015;-33
2022/01/04 04:38:15;;;;;;;39.53;21.35;;;;;;;-0.67;81.26;93365.50;5114153;28;20118;-33
2022/01/04 04:40:41;;;;;;;26.65;14.48;;;;;;;-0.56;80.32;93367.59;5114374;28;20023;-33
2022/01/04 04:43:07;;;;;;;23.23;13.38;;;;;;;-0.60;80.45;93375.19;5114196;28;20028;-33
2022/01/04 04:45:32;;;;;;;20.08;10.80;;;;;;;-0.72;81.36;93360.78;5113931;28;20089;-33
2022/01/04 04:47:58;;;;;;;14.85;10.65;;;;;;;-0.56;80.77;93375.72;5114132;28;20032;-33
2022/01/04 04:50:23;;;;;;;16.75;9.77;;;;;;;-0.63;80.41;93382.31;5114309;28;20027;-33
2022/01/04 04:52:49;;;;;;;23.10;13.50;;;;;;;-0.57;79.85;93377.69;5113348;28;20523;-33
2022/01/04 04:55:14;;;;;;;22.90;11.95;;;;;;;-0.58;78.69;93380.88;5113904;28;20020;-34
2022/01/04 04:57:40;;;;;;;11.52;7.10;;;;;;;-0.58;78.73;93381.63;5113686;28;20019;-33
2022/01/04 05:00:08;;;;;;;12.52;7.95;;;;;;;-0.81;78.49;93390.75;5113674;28;20054;-33
2022/01/04 05:02:34;;;;;;;20.40;10.95;;;;;;;-0.95;79.68;93397.00;5113748;28;20027;-33
2022/01/04 05:04:59;;;;;;;14.93;8.38;;;;;;;-0.99;79.93;93389.06;5113780;28;20041;-33
2022/01/04 05:07:26;;;;;;;8.82;5.30;;;;;;;-1.08;79.89;93378.38;5113860;28;20031;-33
2022/01/04 05:09:51;;;;;;;9.57;5.55;;;;;;;-1.26;80.94;93384.09;5113647;28;20032;-33
2022/01/04 05:12:17;;;;;;;18.45;11.50;;;;;;;-1.27;82.05;93387.25;5113567;28;20023;-33
2022/01/04 05:14:46;;;;;;;25.08;11.15;;;;;;;-1.24;81.84;93383.63;5113431;28;20034;-33
2022/01/04 05:17:12;;;;;;;25.45;14.95;;;;;;;-1.22;82.47;93381.16;5113787;28;20020;-33
2022/01/04 05:19:38;;;;;;;29.38;17.42;;;;;;;-0.99;82.24;93383.66;5113617;28;20471;-33
2022/01/04 05:22:04;;;;;;;23.58;13.40;;;;;;;-0.91;81.64;93384.00;5113395;28;20115;-33
2022/01/04 05:24:30;;;;;;;22.50;12.80;;;;;;;-0.64;80.17;93391.66;5113549;28;20030;-33
2022/01/04 05:26:55;;;;;;;23.63;13.52;;;;;;;-0.53;79.74;93383.63;5113095;28;20561;-33
2022/01/04 05:29:21;;;;;;;24.15;14.32;;;;;;;-0.63;79.87;93357.16;5112819;28;20074;-33
2022/01/04 05:31:46;;;;;;;22.40;14.27;;;;;;;-0.44;79.71;93386.19;5112885;28;20067;-33
2022/01/04 05:34:12;;;;;;;22.45;14.75;;;;;;;-0.44;79.50;93378.06;5113341;28;20027;-33
2022/01/04 05:36:37;;;;;;;29.75;16.60;;;;;;;-0.41;79.51;93374.38;5113217;28;20012;-33
2022/01/04 05:39:03;;;;;;;26.10;15.05;;;;;;;-0.37;79.67;93369.47;5113045;28;20136;-33
2022/01/04 05:41:29;;;;;;;24.05;15.55;;;;;;;-0.31;79.48;93372.25;5112944;28;20026;-33
2022/01/04 05:43:54;;;;;;;24.63;15.30;;;;;;;-0.50;79.18;93335.84;5112992;28;20023;-33
2022/01/04 05:46:20;;;;;;;26.50;14.15;;;;;;;-0.64;79.61;93369.22;5112747;27;20024;-33
2022/01/04 05:48:45;;;;;;;23.85;12.80;;;;;;;-0.62;80.19;93367.53;5112897;28;20031;-33
2022/01/04 05:51:11;;;;;;;24.08;13.30;;;;;;;-0.76;79.52;93363.69;5112812;28;20077;-33
2022/01/04 05:53:36;;;;;;;22.75;12.95;;;;;;;-0.60;80.21;93365.09;5112431;28;20047;-33
2022/01/04 05:56:02;;;;;;;60.58;30.20;;;;;;;-0.44;79.95;93371.88;5113294;28;20016;-33
2022/01/04 05:58:28;;;;;;;66.20;40.15;;;;;;;-0.52;79.01;93360.72;5112766;28;20352;-33
2022/01/04 06:00:53;;;;;;;71.82;39.40;;;;;;;-0.40;78.59;93370.44;5112515;28;20139;-34
2022/01/04 06:03:19;;;;;;;76.20;38.90;;;;;;;-0.35;78.22;93353.50;5112560;28;20421;-33
2022/01/04 06:05:44;;;;;;;50.00;26.25;;;;;;;-0.43;78.01;93370.66;5112379;28;20076;-33
2022/01/04 06:08:11;;;;;;;18.55;12.23;;;;;;;-0.64;77.95;93369.97;5112469;28;20077;-33
2022/01/04 06:10:40;;;;;;;42.38;19.48;;;;;;;-0.86;78.37;93375.16;5112790;28;20084;-33
2022/01/04 06:15:31;;;;;;;27.08;14.00;;;;;;;-0.87;79.74;93362.84;5112591;27;20318;-33
2022/01/04 06:17:58;;;;;;;22.27;12.63;;;;;;;-0.65;79.55;93365.75;5112309;28;20015;-33
2022/01/04 06:20:24;;;;;;;25.15;13.82;;;;;;;-0.82;79.93;93367.56;5112217;28;20031;-33
2022/01/04 06:22:51;;;;;;;28.08;14.43;;;;;;;-0.55;80.31;93375.25;5112061;28;20114;-33
2022/01/04 06:25:20;;;;;;;58.63;26.25;;;;;;;-0.32;80.23;93382.34;5112435;28;20031;-33
2022/01/04 06:27:48;;;;;;;66.43;33.97;;;;;;;-0.40;79.17;93378.59;5112052;28;20023;-33
2022/01/04 06:30:15;;;;;;;68.85;37.28;;;;;;;-0.17;77.58;93380.25;5112352;28;20059;-33
2022/01/04 06:32:45;;;;;;;72.35;36.85;;;;;;;-0.36;78.34;93379.09;5110779;28;20055;-33
2022/01/04 06:35:13;;;;;;;90.75;45.05;;;;;;;-0.24;78.92;93382.66;5112056;28;20023;-33
2022/01/04 06:37:39;;;;;;;83.40;40.95;;;;;;;-0.15;78.82;93377.78;5111823;28;20051;-33
2022/01/04 06:40:05;;;;;;;67.57;31.33;;;;;;;-0.19;79.52;93373.81;5112034;28;20055;-33
2022/01/04 06:42:30;;;;;;;77.85;33.40;;;;;;;-0.06;78.38;93360.59;5112151;28;20481;-33
2022/01/04 06:44:56;;;;;;;97.75;42.53;;;;;;;0.13;78.43;93364.44;5112042;28;20062;-33
2022/01/04 06:47:21;;;;;;;103.20;47.92;;;;;;;0.28;77.98;93361.56;5111724;28;20420;-33
2022/01/04 06:49:47;;;;;;;103.22;48.97;;;;;;;0.30;77.62;93351.72;5111693;28;20085;-33
2022/01/04 06:52:12;;;;;;;108.70;51.13;;;;;;;0.38;76.79;93362.88;5111709;28;20035;-33
2022/01/04 06:54:38;;;;;;;127.50;66.03;;;;;;;0.42;76.78;93352.50;5111049;28;20056;-33
2022/01/04 06:57:03;;;;;;;145.52;79.90;;;;;;;0.51;77.05;93363.19;5111821;28;20031;-33
2022/01/04 06:59:29;;;;;;;134.52;73.90;;;;;;;0.74;74.82;93365.50;5111300;28;20047;-33
2022/01/04 07:01:55;;;;;;;117.10;58.60;;;;;;;0.89;74.79;93356.44;5111454;28;20035;-33
2022/01/04 07:04:20;;;;;;;97.22;54.33;;;;;;;0.58;75.28;93354.59;5111736;28;20032;-33
2022/01/04 07:06:46;;;;;;;106.68;57.22;;;;;;;0.77;76.09;93356.41;5111240;28;20491;-33
2022/01/04 07:09:11;;;;;;;118.22;60.20;;;;;;;0.97;76.09;93354.75;5111256;28;20035;-33
2022/01/04 07:11:37;;;;;;;99.93;54.72;;;;;;;0.98;75.73;93332.50;5111460;28;20019;-33
2022/01/04 07:14:03;;;;;;;106.07;52.90;;;;;;;1.16;75.29;93345.66;5111443;28;20031;-33
2022/01/04 07:16:29;;;;;;;89.88;44.83;;;;;;;1.27;75.60;93353.84;5111486;28;20412;-33
2022/01/04 07:18:55;;;;;;;95.40;48.33;;;;;;;1.13;76.50;93343.91;5111415;28;20386;-33
2022/01/04 07:21:20;;;;;;;69.93;36.25;;;;;;;1.17;76.83;93340.97;5110962;27;20502;-33
2022/01/04 07:23:48;;;;;;;65.18;35.00;;;;;;;1.26;76.84;93329.84;5111005;28;20024;-33
2022/01/04 07:26:17;;;;;;;58.38;30.77;;;;;;;1.43;76.73;93327.88;5110715;28;20152;-33
2022/01/04 07:28:44;;;;;;;92.75;54.13;;;;;;;1.56;76.65;93322.00;5111210;28;20417;-33
2022/01/04 07:31:10;;;;;;;93.18;50.63;;;;;;;1.91;76.05;93322.22;5110867;28;20028;-33
2022/01/04 07:33:36;;;;;;;78.32;41.13;;;;;;;2.11;74.98;93321.97;5110817;28;20032;-33
2022/01/04 07:36:02;;;;;;;78.05;44.95;;;;;;;2.34;74.32;93320.69;5110887;28;20050;-33
2022/01/04 07:38:28;;;;;;;57.80;36.90;;;;;;;2.50;74.12;93317.19;5109659;28;20032;-33
2022/01/04 07:40:53;;;;;;;70.90;43.15;;;;;;;2.58;72.59;93322.88;5110750;28;20139;-34
2022/01/04 07:43:19;;;;;;;69.07;41.92;;;;;;;2.50;73.76;93321.88;5110755;28;20023;-33
2022/01/04 07:45:44;;;;;;;57.67;35.95;;;;;;;2.85;72.99;93324.75;5110553;28;20034;-34
2022/01/04 07:48:10;;;;;;;103.90;55.20;;;;;;;3.14;72.48;93328.84;5110800;28;20059;-34
2022/01/04 07:50:40;;;;;;;73.72;36.90;;;;;;;3.39;71.39;93339.38;5111227;28;20437;-34
2022/01/04 07:53:06;;;;;;;48.67;30.83;;;;;;;3.56;70.71;93339.25;5109801;28;20076;-34
2022/01/04 07:55:32;;;;;;;43.55;28.20;;;;;;;3.18;71.46;93351.13;5110529;28;20031;-33
2022/01/04 07:57:58;;;;;;;53.75;32.33;;;;;;;2.97;72.72;93354.19;5110627;28;20115;-34
2022/01/04 08:00:25;;;;;;;48.00;29.75;;;;;;;2.77;74.14;93351.78;5110495;28;20126;-33
2022/01/04 08:02:51;;;;;;;37.72;22.75;;;;;;;2.70;74.73;93351.56;5110812;28;20035;-34
2022/01/04 08:05:17;;;;;;;31.33;18.10;;;;;;;2.76;75.57;93347.59;5110785;28;20108;-33
2022/01/04 08:07:42;;;;;;;26.10;16.33;;;;;;;3.16;75.79;93351.66;5110571;28;20103;-34
2022/01/04 08:10:08;;;;;;;27.52;17.05;;;;;;;4.29;73.44;93343.66;5110448;28;20111;-34
2022/01/04 08:12:35;;;;;;;33.53;18.98;;;;;;;5.43;69.57;93341.41;5110349;28;20027;-34
2022/01/04 08:15:02;;;;;;;38.17;24.60;;;;;;;6.41;65.96;93339.72;5110459;28;20102;-34
2022/01/04 08:17:30;;;;;;;28.92;17.75;;;;;;;7.24;63.14;93316.94;5110298;28;20031;-34
2022/01/04 08:19:55;;;;;;;28.92;20.63;;;;;;;8.14;59.89;93335.72;5110608;28;20470;-34
2022/01/04 08:22:21;;;;;;;56.10;35.15;;;;;;;8.97;57.42;93331.63;5110357;28;20029;-34
2022/01/04 08:24:46;;;;;;;45.00;29.45;;;;;;;9.51;54.98;93338.16;5110576;28;20107;-34
2022/01/04 08:27:12;;;;;;;32.75;21.52;;;;;;;9.81;53.48;93343.81;5110192;28;20026;-34
2022/01/04 08:29:37;;;;;;;30.38;20.67;;;;;;;10.25;51.57;93342.47;5110386;28;20059;-34
2022/01/04 08:32:03;;;;;;;22.73;16.23;;;;;;;10.57;50.68;93337.16;5110353;28;20108;-34
2022/01/04 08:34:29;;;;;;;22.70;15.55;;;;;;;10.96;49.49;93340.69;5110294;28;20069;-34
2022/01/04 08:36:55;;;;;;;32.08;22.33;;;;;;;11.22;49.34;93341.00;5110292;28;20031;-34
2022/01/04 08:39:26;;;;;;;42.15;28.17;;;;;;;11.59;47.67;93338.69;5109404;28;20042;-34
2022/01/04 08:41:54;;;;;;;38.22;27.45;;;;;;;11.88;47.32;93326.06;5110185;28;20042;-34
2022/01/04 08:44:23;;;;;;;35.55;21.52;;;;;;;12.02;46.67;93307.91;5110519;28;20028;-35
2022/01/04 08:46:49;;;;;;;30.42;19.23;;;;;;;12.40;45.59;93313.97;5090080;28;20016;-35
2022/01/04 08:49:14;;;;;;;28.30;20.40;;;;;;;11.42;47.16;93306.88;5089876;28;20413;-35
2022/01/04 08:51:40;;;;;;;19.33;13.43;;;;;;;10.90;49.07;93310.47;5122559;28;20036;-35
2022/01/04 08:54:06;;;;;;;23.17;17.60;;;;;;;10.28;51.04;93302.75;5105381;28;20110;-34
2022/01/04 08:56:32;;;;;;;24.10;16.42;;;;;;;10.45;51.20;93294.66;5110078;28;20106;-35
2022/01/04 08:58:58;;;;;;;21.02;15.48;;;;;;;10.90;50.67;93293.91;5110083;28;20028;-35
2022/01/04 09:01:24;;;;;;;35.78;24.23;;;;;;;11.81;49.16;93299.19;5069667;28;20436;-34
2022/01/04 09:03:50;;;;;;;30.73;20.77;;;;;;;12.52;47.43;93294.88;5069694;28;20028;-35
2022/01/04 09:06:15;;;;;;;26.00;19.02;;;;;;;12.82;46.55;93294.66;5072041;28;20020;-35
2022/01/04 09:08:44;;;;;;;20.02;13.10;;;;;;;13.40;45.05;93293.19;5073298;28;20037;-35
2022/01/04 09:11:10;;;;;;;15.82;11.63;;;;;;;13.72;44.36;93293.00;5073361;28;20029;-35
2022/01/04 09:13:40;;;;;;;23.95;16.48;;;;;;;13.88;43.50;93280.41;5072694;28;20512;-35
2022/01/04 09:18:49;;;;;;;22.33;15.43;;;;;;;14.56;41.88;93271.13;5073226;28;20036;-35
2022/01/04 09:21:15;;;;;;;22.75;15.63;;;;;;;14.03;42.12;93260.78;5073145;28;20101;-35
2022/01/04 09:23:41;;;;;;;20.13;15.57;;;;;;;13.45;43.96;93256.88;5072697;28;20028;-35
2022/01/04 09:26:08;;;;;;;26.73;19.00;;;;;;;13.08;45.39;93258.00;5072301;28;20074;-35
2022/01/04 09:28:34;;;;;;;22.75;16.33;;;;;;;13.47;44.36;93262.59;5072370;28;20444;-35
2022/01/04 09:30:59;;;;;;;21.27;14.70;;;;;;;13.74;43.54;93245.25;5072998;28;20027;-35
2022/01/04 09:33:25;;;;;;;17.02;12.30;;;;;;;13.45;43.30;93243.00;5071669;28;20549;-35
2022/01/04 09:35:50;;;;;;;16.80;12.80;;;;;;;14.19;42.79;93236.31;5072801;28;20024;-35
2022/01/04 09:38:17;;;;;;;15.23;11.63;;;;;;;15.23;41.96;93249.06;5072485;28;20104;-35
2022/01/04 09:40:43;;;;;;;16.38;11.52;;;;;;;16.18;40.28;93239.19;5072444;28;20103;-35
2022/01/04 09:43:10;;;;;;;13.30;10.18;;;;;;;16.91;39.96;93242.91;5072421;28;20112;-35
2022/01/04 09:45:36;;;;;;;12.23;9.60;;;;;;;17.70;37.63;93231.34;5072100;28;20056;-35
2022/01/04 09:48:02;;;;;;;15.30;8.82;;;;;;;18.39;35.64;93223.16;5072633;28;20052;-35
2022/01/04 09:50:28;;;;;;;13.57;8.57;;;;;;;18.90;34.51;93224.91;5072573;28;20093;-36
2022/01/04 09:52:55;;;;;;;19.85;12.52;;;;;;;19.40;34.43;93220.84;5071467;28;20541;-35
2022/01/04 09:55:21;;;;;;;14.85;11.23;;;;;;;20.16;32.26;93216.03;5072513;28;20024;-35
2022/01/04 09:57:47;;;;;;;20.77;15.55;;;;;;;20.72;31.80;93215.59;5072017;28;20520;-35
2022/01/04 10:00:15;;;;;;;21.70;15.40;;;;;;;20.87;31.00;93207.28;5092646;28;20051;-36
2022/01/04 10:02:50;;;;;;;23.65;18.73;;;;;;;21.19;31.51;93199.81;5112883;28;20051;-35
2022/01/04 10:05:16;;;;;;;22.13;16.73;;;;;;;21.59;30.86;93201.84;5112874;28;20738;-36
2022/01/04 10:07:43;;;;;;;21.73;16.88;;;;;;;21.79;31.08;93193.66;5112361;28;20027;-35
2022/01/04 10:10:13;;;;;;;19.52;14.18;;;;;;;22.07;29.95;93188.72;5092414;28;20088;-35
2022/01/04 10:12:53;;;;;;;17.40;13.68;;;;;;;22.15;30.70;93181.41;5092048;28;20020;-35
2022/01/04 10:15:34;;;;;;;18.33;14.77;;;;;;;22.35;29.62;93171.06;5092002;28;20073;-35
2022/01/04 10:18:21;;;;;;;18.58;14.95;;;;;;;22.14;29.76;93165.88;5092326;28;20028;-36
2022/01/04 10:21:01;;;;;;;17.05;13.23;;;;;;;22.25;29.94;93158.63;5091885;28;20076;-36
2022/01/04 10:23:27;;;;;;;18.10;15.93;;;;;;;22.38;29.39;93164.19;5092247;28;20034;-36
2022/01/04 10:26:04;;;;;;;18.33;14.48;;;;;;;22.22;28.73;93149.38;5091967;28;20114;-36
2022/01/04 10:28:44;;;;;;;20.33;15.70;;;;;;;22.12;29.78;93142.53;5091824;28;20063;-36
2022/01/04 10:31:14;;;;;;;16.52;12.52;;;;;;;22.23;28.76;93139.56;5092101;28;20028;-36
2022/01/04 10:33:40;;;;;;;13.82;10.25;;;;;;;22.23;28.27;93139.56;5091819;28;20097;-35
2022/01/04 10:36:15;;;;;;;12.18;9.10;;;;;;;22.25;28.79;93128.41;5091882;28;20492;-36
2022/01/04 10:38:46;;;;;;;10.95;8.75;;;;;;;22.31;29.82;93123.06;5091646;28;20052;-34
2022/01/04 10:41:22;;;;;;;9.32;7.70;;;;;;;22.72;28.14;93116.47;5091599;28;20024;-33
2022/01/04 10:43:50;;;;;;;8.68;7.28;;;;;;;23.24;28.21;93118.69;5091993;28;20023;-34
2022/01/04 10:46:21;;;;;;;10.07;7.82;;;;;;;22.95;27.63;93113.25;5107425;28;20024;-34
2022/01/04 10:48:49;;;;;;;21.58;15.73;;;;;;;23.59;27.09;93113.16;5111774;28;20035;-34
2022/01/04 10:51:17;;;;;;;10.15;6.95;;;;;;;23.81;26.01;93102.03;5111901;28;20500;-34
2022/01/04 10:53:46;;;;;;;8.77;4.70;;;;;;;22.59;27.08;93096.22;5110878;28;20047;-33
2022/01/04 10:56:22;;;;;;;5.82;4.00;;;;;;;22.16;27.79;93090.03;5111560;28;20053;-35
2022/01/04 10:58:49;;;;;;;8.45;5.85;;;;;;;22.50;28.16;93082.44;5111578;28;20015;-35
2022/01/04 11:01:17;;;;;;;7.65;4.97;;;;;;;22.51;26.53;93084.59;5111333;28;20043;-35
2022/01/04 11:03:56;;;;;;;8.50;4.20;;;;;;;22.57;26.68;93078.50;5111366;28;20024;-36
2022/01/04 11:06:35;;;;;;;7.88;4.47;;;;;;;22.63;26.51;93059.09;5111327;28;20455;-35
2022/01/04 11:09:02;;;;;;;;;;;;;;;22.74;27.05;93077.16;5112285;28;20031;-36
2022/01/04 11:11:27;;;;;;;9.90;4.95;;;;;;;22.14;27.28;93078.69;5111314;28;19915;-35
2022/01/04 11:13:53;;;;;;;9.75;7.10;;;;;;;21.84;29.08;93077.31;5111258;28;20110;-35
2022/01/04 11:16:22;;;;;;;8.73;6.90;;;;;;;22.45;26.79;93052.66;5111201;28;20038;-35
2022/01/04 11:18:50;;;;;;;;;;;;;;;22.80;27.06;93054.88;5111794;28;20055;-36
2022/01/04 11:21:24;;;;;;;5.55;4.28;;;;;;;22.87;25.87;93056.59;5111415;28;19918;-36
2022/01/04 11:23:51;;;;;;;9.18;5.65;;;;;;;22.66;27.84;93060.63;5111081;28;20060;-36
2022/01/04 11:26:18;;;;;;;9.23;7.20;;;;;;;22.74;27.48;93051.81;5110906;28;20031;-36